createdAt,value
2022-10-13T00:01:24.064Z,26.90
2022-10-13T00:03:52.181Z,26.98
2022-10-13T00:11:20.817Z,26.33
2022-10-13T00:13:49.442Z,24.85
2022-10-13T00:16:20.572Z,24.17
2022-10-13T00:18:49.259Z,23.77
2022-10-13T00:21:20.366Z,25.08
2022-10-13T00:23:51.168Z,22.98
2022-10-13T00:26:22.114Z,23.15
2022-10-13T00:28:52.810Z,23.15
2022-10-13T00:31:24.293Z,24.98
2022-10-13T00:33:52.935Z,23.27
2022-10-13T00:36:23.210Z,24.85
2022-10-13T00:38:51.730Z,25.50
2022-10-13T00:41:20.519Z,24.73
2022-10-13T00:43:58.326Z,24.52
2022-10-13T00:46:50.577Z,27.08
2022-10-13T00:49:18.684Z,28.77
2022-10-13T00:51:50.021Z,29.40
2022-10-13T00:54:23.353Z,29.20
2022-10-13T00:56:53.071Z,31.02
2022-10-13T00:59:30.018Z,26.85
2022-10-13T01:02:00.471Z,27.85
2022-10-13T01:04:34.152Z,27.92
2022-10-13T01:07:03.845Z,25.92
2022-10-13T01:09:38.522Z,24.30
2022-10-13T01:12:39.737Z,29.50
2022-10-13T01:15:16.547Z,28.08
2022-10-13T01:18:08.875Z,31.08
2022-10-13T01:20:54.031Z,27.15
2022-10-13T01:23:56.744Z,33.67
2022-10-13T01:26:43.339Z,36.92
2022-10-13T01:29:48.642Z,28.73
2022-10-13T01:32:30.015Z,28.75
2022-10-13T01:35:05.411Z,26.17
2022-10-13T01:37:46.053Z,26.70
2022-10-13T01:40:33.429Z,28.52
2022-10-13T01:43:11.780Z,24.85
2022-10-13T01:45:56.041Z,23.15
2022-10-13T01:48:25.203Z,24.48
2022-10-13T01:50:55.216Z,21.75
2022-10-13T01:53:24.506Z,22.45
2022-10-13T01:56:00.263Z,21.05
2022-10-13T01:58:31.679Z,20.60
2022-10-13T02:01:07.692Z,22.40
2022-10-13T02:03:58.841Z,24.33
2022-10-13T02:06:33.827Z,21.42
2022-10-13T02:09:22.067Z,21.50
2022-10-13T02:12:08.307Z,23.50
2022-10-13T02:14:39.396Z,20.17
2022-10-13T02:17:07.419Z,22.65
2022-10-13T02:19:37.726Z,24.20
2022-10-13T02:22:12.254Z,21.52
2022-10-13T02:24:41.231Z,20.65
2022-10-13T02:27:10.189Z,20.63
2022-10-13T02:29:54.227Z,19.65
2022-10-13T02:32:23.535Z,19.73
2022-10-13T02:34:52.775Z,18.73
2022-10-13T02:37:20.993Z,20.52
2022-10-13T02:39:48.922Z,19.42
2022-10-13T02:42:18.095Z,19.67
2022-10-13T02:44:46.886Z,18.92
2022-10-13T02:47:14.813Z,19.40
2022-10-13T02:49:42.754Z,18.63
2022-10-13T02:52:10.624Z,19.38
2022-10-13T02:54:43.057Z,19.35
2022-10-13T02:57:15.852Z,19.02
2022-10-13T02:59:44.712Z,19.20
2022-10-13T03:02:12.608Z,18.75
2022-10-13T03:04:44.415Z,19.15
2022-10-13T03:07:12.495Z,25.65
2022-10-13T03:09:40.585Z,17.90
2022-10-13T03:12:08.811Z,17.65
2022-10-13T03:14:38.523Z,19.13
2022-10-13T03:17:11.037Z,17.92
2022-10-13T03:19:47.855Z,19.02
2022-10-13T03:22:19.631Z,19.30
2022-10-13T03:24:47.760Z,19.85
2022-10-13T03:27:15.842Z,20.20
2022-10-13T03:29:43.796Z,20.27
2022-10-13T03:32:11.722Z,23.35
2022-10-13T03:34:39.594Z,22.60
2022-10-13T03:37:07.572Z,22.60
2022-10-13T03:39:42.628Z,23.02
2022-10-13T03:42:11.723Z,22.40
2022-10-13T03:44:40.409Z,25.25
2022-10-13T03:47:08.308Z,27.02
2022-10-13T03:49:36.215Z,25.00
2022-10-13T03:52:04.581Z,23.90
2022-10-13T03:54:32.776Z,22.08
2022-10-13T03:57:02.202Z,24.08
2022-10-13T03:59:36.824Z,24.15
2022-10-13T04:02:05.578Z,23.05
2022-10-13T04:04:33.631Z,22.60
2022-10-13T04:07:03.171Z,22.75
2022-10-13T04:09:31.081Z,23.17
2022-10-13T04:11:58.968Z,22.50
2022-10-13T04:14:27.912Z,22.60
2022-10-13T04:17:00.250Z,23.70
2022-10-13T04:19:28.296Z,27.02
2022-10-13T04:21:56.174Z,24.40
2022-10-13T04:24:24.038Z,25.73
2022-10-13T04:26:51.924Z,23.88
2022-10-13T04:29:19.870Z,23.70
2022-10-13T04:31:49.770Z,21.08
2022-10-13T04:34:17.667Z,20.67
2022-10-13T04:36:45.508Z,22.52
2022-10-13T04:39:13.399Z,21.92
2022-10-13T04:41:41.238Z,21.13
2022-10-13T04:44:12.462Z,21.48
2022-10-13T04:46:44.772Z,21.38
2022-10-13T04:49:12.684Z,21.30
2022-10-13T04:51:42.206Z,22.35
2022-10-13T04:54:11.115Z,23.55
2022-10-13T04:56:38.986Z,22.42
2022-10-13T04:59:07.247Z,21.70
2022-10-13T05:01:36.892Z,21.98
2022-10-13T05:04:07.251Z,23.85
2022-10-13T05:07:05.364Z,23.05
2022-10-13T05:09:30.324Z,29.30
2022-10-13T05:11:58.403Z,24.65
2022-10-13T05:14:26.392Z,23.50
2022-10-13T05:16:54.424Z,23.15
2022-10-13T05:19:22.615Z,23.05
2022-10-13T05:21:50.611Z,22.73
2022-10-13T05:24:18.712Z,22.38
2022-10-13T05:26:50.564Z,25.85
2022-10-13T05:29:19.440Z,22.90
2022-10-13T05:31:47.396Z,25.77
2022-10-13T05:34:15.437Z,26.77
2022-10-13T05:36:43.327Z,27.35
2022-10-13T05:39:11.194Z,23.70
2022-10-13T05:41:40.358Z,25.20
2022-10-13T05:44:14.674Z,26.77
2022-10-13T05:46:54.544Z,27.38
2022-10-13T05:49:22.551Z,29.52
2022-10-13T05:51:54.003Z,28.27
2022-10-13T05:54:44.190Z,27.83
2022-10-13T05:57:33.864Z,27.42
2022-10-13T06:00:09.146Z,28.75
2022-10-13T06:02:50.287Z,28.00
2022-10-13T06:05:20.962Z,27.17
2022-10-13T06:07:55.117Z,27.63
2022-10-13T06:10:24.374Z,29.92
2022-10-13T06:12:52.475Z,29.52
2022-10-13T06:15:24.437Z,28.17
2022-10-13T06:17:55.380Z,28.95
2022-10-13T06:20:23.240Z,28.02
2022-10-13T06:22:52.070Z,29.45
2022-10-13T06:25:19.951Z,28.58
2022-10-13T06:27:47.860Z,29.77
2022-10-13T06:30:15.846Z,29.95
2022-10-13T06:32:43.898Z,30.05
2022-10-13T06:35:12.055Z,28.83
2022-10-13T06:37:39.989Z,27.10
2022-10-13T06:40:11.788Z,25.80
2022-10-13T06:42:40.094Z,26.35
2022-10-13T06:45:11.502Z,26.23
2022-10-13T06:47:41.704Z,24.77
2022-10-13T06:50:09.974Z,24.75
2022-10-13T06:52:37.940Z,26.70
2022-10-13T06:55:06.725Z,24.55
2022-10-13T06:57:35.930Z,24.23
2022-10-13T07:00:07.983Z,23.73
2022-10-13T07:02:47.429Z,24.20
2022-10-13T07:05:15.479Z,24.90
2022-10-13T07:07:43.439Z,23.48
2022-10-13T07:10:11.372Z,24.13
2022-10-13T07:12:39.251Z,24.13
2022-10-13T07:15:07.565Z,24.58
2022-10-13T07:17:35.449Z,22.95
2022-10-13T07:20:07.198Z,23.08
2022-10-13T07:22:35.727Z,23.55
2022-10-13T07:25:03.610Z,24.15
2022-10-13T07:27:31.459Z,22.30
2022-10-13T07:29:59.288Z,22.65
2022-10-13T07:32:27.194Z,21.55
2022-10-13T07:34:55.153Z,22.23
2022-10-13T07:37:25.868Z,22.17
2022-10-13T07:39:54.496Z,22.98
2022-10-13T07:42:22.335Z,22.73
2022-10-13T07:44:50.174Z,23.25
2022-10-13T07:47:18.326Z,22.13
2022-10-13T07:49:46.372Z,23.20
2022-10-13T07:52:14.242Z,22.25
2022-10-13T07:54:42.156Z,22.08
2022-10-13T07:57:10.279Z,21.75
2022-10-13T07:59:38.287Z,21.45
2022-10-13T08:02:10.051Z,21.30
2022-10-13T08:04:38.199Z,21.35
2022-10-13T08:07:07.030Z,21.33
2022-10-13T08:09:35.282Z,21.17
2022-10-13T08:12:03.131Z,20.98
2022-10-13T08:14:32.217Z,21.45
2022-10-13T08:17:00.482Z,20.35
2022-10-13T08:19:29.478Z,19.95
2022-10-13T08:21:59.177Z,21.00
2022-10-13T08:24:28.282Z,22.48
2022-10-13T08:26:57.283Z,20.50
2022-10-13T08:29:25.254Z,21.02
2022-10-13T08:31:54.506Z,20.08
2022-10-13T08:34:24.103Z,22.35
2022-10-13T08:36:55.279Z,21.83
2022-10-13T08:39:29.427Z,21.77
2022-10-13T08:41:58.950Z,22.45
2022-10-13T08:45:10.826Z,22.23
2022-10-13T08:47:35.872Z,21.88
2022-10-13T08:50:13.819Z,21.70
2022-10-13T08:53:03.067Z,21.98
2022-10-13T08:55:52.734Z,23.20
2022-10-13T08:58:24.586Z,22.20
2022-10-13T09:01:17.190Z,22.05
2022-10-13T09:04:12.134Z,21.95
2022-10-13T09:06:46.383Z,21.85
2022-10-13T09:09:17.832Z,21.20
2022-10-13T09:11:51.069Z,20.67
2022-10-13T09:14:33.902Z,21.85
2022-10-13T09:17:27.558Z,21.10
2022-10-13T09:20:19.323Z,21.23
2022-10-13T09:28:02.387Z,21.27
2022-10-13T09:30:42.227Z,20.80
2022-10-13T09:33:10.152Z,21.10
2022-10-13T09:35:41.681Z,20.90
2022-10-13T09:38:23.220Z,21.08
2022-10-13T09:41:21.921Z,21.73
2022-10-13T09:43:49.779Z,20.73
2022-10-13T09:46:33.833Z,22.48
2022-10-13T09:49:06.318Z,20.88
2022-10-13T09:51:44.479Z,21.35
2022-10-13T09:54:37.603Z,21.33
2022-10-13T09:57:21.320Z,22.08
2022-10-13T09:59:54.500Z,21.30
2022-10-13T10:02:34.022Z,21.52
2022-10-13T10:05:25.672Z,21.90
2022-10-13T10:08:03.615Z,22.13
2022-10-13T10:10:40.399Z,21.60
2022-10-13T10:13:14.256Z,21.50
2022-10-13T10:15:54.370Z,22.40
2022-10-13T10:18:49.459Z,20.95
2022-10-13T10:21:56.399Z,21.05
2022-10-13T10:24:38.722Z,21.25
2022-10-13T10:27:22.804Z,20.65
2022-10-13T10:30:06.119Z,22.30
2022-10-13T10:32:52.106Z,20.55
2022-10-13T10:35:54.350Z,20.73
2022-10-13T10:38:47.334Z,20.00
2022-10-13T10:41:18.154Z,19.52
2022-10-13T10:44:16.051Z,19.60
2022-10-13T10:46:51.227Z,20.35
2022-10-13T10:49:31.522Z,19.90
2022-10-13T10:52:02.595Z,20.70
2022-10-13T10:54:46.680Z,21.23
2022-10-13T10:57:17.496Z,21.52
2022-10-13T11:00:12.814Z,19.25
2022-10-13T11:03:18.302Z,21.48
2022-10-13T11:06:00.274Z,19.10
2022-10-13T11:08:42.333Z,19.55
2022-10-13T11:11:28.656Z,21.00
2022-10-13T11:14:02.265Z,20.83
2022-10-13T11:16:51.413Z,20.58
2022-10-13T11:19:33.747Z,20.42
2022-10-13T11:22:01.656Z,20.55
2022-10-13T11:24:43.311Z,21.05
2022-10-13T11:27:18.181Z,20.95
2022-10-13T11:29:47.622Z,20.15
2022-10-13T11:32:36.438Z,20.40
2022-10-13T11:35:07.144Z,23.15
2022-10-13T11:38:11.510Z,20.00
2022-10-13T11:41:14.187Z,20.98
2022-10-13T11:44:00.440Z,25.25
2022-10-13T11:47:06.171Z,19.40
2022-10-13T11:49:44.841Z,23.00
2022-10-13T11:52:28.394Z,20.58
2022-10-13T11:55:06.055Z,21.75
2022-10-13T11:57:34.180Z,19.50
2022-10-13T12:00:03.874Z,20.10
2022-10-13T12:02:53.401Z,20.95
2022-10-13T12:05:25.983Z,19.47
2022-10-13T12:07:56.802Z,20.20
2022-10-13T12:10:36.566Z,23.35
2022-10-13T12:13:08.133Z,21.63
2022-10-13T12:15:39.016Z,20.75
2022-10-13T12:18:24.008Z,20.58
2022-10-13T12:20:57.606Z,19.33
2022-10-13T12:23:26.774Z,18.85
2022-10-13T12:26:01.819Z,18.98
2022-10-13T12:28:52.471Z,19.63
2022-10-13T12:31:27.130Z,19.17
2022-10-13T12:34:00.642Z,18.38
2022-10-13T12:36:34.681Z,18.63
2022-10-13T12:39:11.595Z,18.95
2022-10-13T12:41:45.962Z,17.48
2022-10-13T12:44:19.219Z,28.65
2022-10-13T12:46:54.374Z,18.30
2022-10-13T12:49:33.450Z,18.30
2022-10-13T12:52:10.419Z,17.60
2022-10-13T12:54:58.857Z,18.92
2022-10-13T12:57:39.506Z,17.65
2022-10-13T13:00:24.438Z,17.40
2022-10-13T13:02:54.914Z,16.85
2022-10-13T13:05:51.938Z,16.02
2022-10-13T13:08:31.083Z,16.23
2022-10-13T13:11:01.440Z,15.73
2022-10-13T13:13:29.774Z,17.60
2022-10-13T13:16:16.227Z,17.42
2022-10-13T13:18:52.650Z,18.85
2022-10-13T13:21:21.327Z,16.95
2022-10-13T13:23:54.009Z,15.48
2022-10-13T13:26:24.334Z,16.05
2022-10-13T13:28:57.218Z,15.38
2022-10-13T13:31:27.327Z,15.50
2022-10-13T13:33:55.702Z,15.57
2022-10-13T13:36:27.426Z,14.90
2022-10-13T13:38:55.838Z,15.15
2022-10-13T13:41:25.104Z,15.10
2022-10-13T13:43:53.079Z,14.55
2022-10-13T13:46:23.234Z,13.65
2022-10-13T13:48:51.998Z,13.23
2022-10-13T13:51:20.427Z,13.68
2022-10-13T13:53:49.093Z,14.70
2022-10-13T13:56:20.314Z,14.50
2022-10-13T13:58:48.746Z,13.25
2022-10-13T14:01:16.993Z,13.07
2022-10-13T14:03:45.038Z,15.73
2022-10-13T14:06:23.993Z,13.75
2022-10-13T14:08:51.914Z,14.32
2022-10-13T14:11:22.111Z,15.70
2022-10-13T14:13:50.015Z,17.20
2022-10-13T14:16:25.333Z,15.48
2022-10-13T14:18:53.955Z,17.13
2022-10-13T14:21:25.989Z,15.18
2022-10-13T14:23:57.925Z,14.75
2022-10-13T14:26:25.807Z,15.63
2022-10-13T14:28:53.684Z,14.30
2022-10-13T14:31:21.621Z,15.20
2022-10-13T14:34:04.938Z,15.73
2022-10-13T14:36:34.070Z,15.32
2022-10-13T14:39:01.998Z,14.95
2022-10-13T14:41:30.098Z,15.93
2022-10-13T14:43:58.535Z,14.95
2022-10-13T14:46:27.027Z,15.10
2022-10-13T14:48:57.174Z,14.85
2022-10-13T14:51:25.239Z,15.00
2022-10-13T14:53:53.275Z,14.85
2022-10-13T14:56:31.108Z,14.70
2022-10-13T14:59:01.349Z,15.10
2022-10-13T15:01:45.256Z,16.27
2022-10-13T15:04:13.213Z,15.48
2022-10-13T15:06:41.718Z,14.85
2022-10-13T15:09:10.571Z,15.18
2022-10-13T15:11:38.858Z,14.50
2022-10-13T15:14:07.148Z,14.82
2022-10-13T15:16:35.324Z,14.20
2022-10-13T15:19:04.662Z,14.43
2022-10-13T15:21:32.897Z,14.93
2022-10-13T15:24:02.480Z,15.45
2022-10-13T15:26:31.390Z,15.65
2022-10-13T15:28:59.884Z,16.67
2022-10-13T15:31:27.928Z,15.85
2022-10-13T15:33:55.950Z,14.73
2022-10-13T15:36:25.230Z,13.73
2022-10-13T15:38:53.683Z,15.07
2022-10-13T15:41:25.484Z,14.55
2022-10-13T15:43:53.398Z,15.05
2022-10-13T15:46:25.447Z,16.30
2022-10-13T15:48:55.433Z,15.63
2022-10-13T15:51:25.960Z,13.70
2022-10-13T15:53:58.577Z,12.60
2022-10-13T15:56:27.608Z,13.00
2022-10-13T15:58:58.298Z,13.70
2022-10-13T16:01:38.523Z,14.13
2022-10-13T16:04:10.053Z,13.93
2022-10-13T16:06:42.007Z,13.82
2022-10-13T16:09:15.963Z,13.98
2022-10-13T16:14:13.959Z,12.85
2022-10-13T16:16:41.940Z,12.27
2022-10-13T16:19:09.933Z,12.43
2022-10-13T16:21:37.865Z,13.77
2022-10-13T16:24:06.328Z,13.13
2022-10-13T16:26:34.220Z,13.48
2022-10-13T16:29:02.369Z,14.32
2022-10-13T16:31:30.215Z,13.82
2022-10-13T16:33:58.149Z,13.18
2022-10-13T16:36:26.436Z,15.30
2022-10-13T16:38:58.167Z,13.63
2022-10-13T16:41:26.841Z,13.48
2022-10-13T16:43:54.771Z,14.20
2022-10-13T16:46:22.804Z,18.10
2022-10-13T16:48:50.744Z,18.08
2022-10-13T16:51:23.869Z,13.88
2022-10-13T16:53:53.875Z,16.20
2022-10-13T16:56:23.634Z,17.08
2022-10-13T16:58:54.473Z,18.63
2022-10-13T17:01:23.566Z,19.10
2022-10-13T17:03:52.736Z,18.10
2022-10-13T17:06:22.363Z,18.50
2022-10-13T17:08:56.374Z,16.52
2022-10-13T17:11:27.684Z,16.52
2022-10-13T17:16:32.363Z,15.48
2022-10-13T17:19:00.664Z,17.52
2022-10-13T17:21:37.984Z,17.50
2022-10-13T17:24:08.910Z,15.30
2022-10-13T17:26:36.882Z,16.63
2022-10-13T17:29:04.815Z,16.88
2022-10-13T17:31:32.709Z,18.17
2022-10-13T17:34:01.156Z,17.73
2022-10-13T17:36:35.187Z,18.85
2022-10-13T17:39:10.719Z,19.05
2022-10-13T17:41:40.863Z,18.65
2022-10-13T17:44:08.790Z,18.08
2022-10-13T17:46:38.768Z,17.77
2022-10-13T17:49:10.421Z,18.55
2022-10-13T17:51:41.829Z,18.05
2022-10-13T17:56:46.804Z,19.85
2022-10-13T17:59:18.931Z,19.55
2022-10-13T18:01:47.083Z,20.08
2022-10-13T18:04:19.564Z,20.17
2022-10-13T18:06:49.671Z,19.98
2022-10-13T18:09:20.061Z,19.07
2022-10-13T18:11:53.692Z,20.42
2022-10-13T18:14:23.399Z,20.05
2022-10-13T18:16:52.874Z,19.80
2022-10-13T18:19:23.272Z,20.40
2022-10-13T18:21:54.887Z,19.52
2022-10-13T18:24:25.687Z,18.77
2022-10-13T18:26:56.085Z,19.55
2022-10-13T18:29:26.440Z,20.33
2022-10-13T18:32:00.416Z,21.30
2022-10-13T18:34:28.719Z,21.05
2022-10-13T18:36:57.248Z,21.70
2022-10-13T18:39:27.889Z,22.02
2022-10-13T18:41:57.479Z,21.07
2022-10-13T18:44:37.660Z,20.92
2022-10-13T18:47:10.082Z,20.40
2022-10-13T18:49:38.362Z,21.15
2022-10-13T18:52:06.403Z,20.88
2022-10-13T18:54:37.576Z,20.58
2022-10-13T18:57:05.615Z,20.63
2022-10-13T18:59:35.187Z,20.23
2022-10-13T19:02:03.274Z,21.38
2022-10-13T19:04:36.753Z,19.48
2022-10-13T19:07:05.423Z,21.20
2022-10-13T19:09:35.538Z,19.63
2022-10-13T19:12:08.043Z,20.73
2022-10-13T19:14:37.913Z,19.48
2022-10-13T19:17:07.533Z,18.10
2022-10-13T19:19:44.218Z,17.90
2022-10-13T19:22:16.298Z,18.38
2022-10-13T19:24:46.106Z,17.88
2022-10-13T19:27:17.055Z,19.77
2022-10-13T19:29:46.762Z,18.65
2022-10-13T19:32:19.225Z,18.65
2022-10-13T19:34:51.681Z,18.25
2022-10-13T19:37:20.844Z,18.92
2022-10-13T19:39:51.644Z,18.10
2022-10-13T19:42:21.406Z,18.98
2022-10-13T19:44:50.045Z,17.45
2022-10-13T19:47:19.881Z,19.25
2022-10-13T19:49:50.041Z,19.27
2022-10-13T19:52:29.328Z,26.38
2022-10-13T19:55:00.171Z,19.38
2022-10-13T19:57:31.087Z,19.40
2022-10-13T20:00:00.308Z,20.17
2022-10-13T20:02:28.163Z,17.90
2022-10-13T20:04:56.060Z,19.73
2022-10-13T20:07:24.078Z,18.25
2022-10-13T20:09:51.946Z,18.90
2022-10-13T20:12:20.230Z,18.15
2022-10-13T20:14:48.148Z,19.17
2022-10-13T20:17:16.097Z,21.00
2022-10-13T20:19:44.459Z,19.23
2022-10-13T20:22:12.324Z,20.63
2022-10-13T20:24:40.389Z,22.05
2022-10-13T20:27:08.334Z,22.98
2022-10-13T20:29:36.272Z,22.95
2022-10-13T20:32:04.248Z,22.73
2022-10-13T20:34:34.083Z,22.30
2022-10-13T20:37:01.959Z,22.42
2022-10-13T20:39:30.148Z,26.00
2022-10-13T20:41:58.039Z,24.17
2022-10-13T20:44:26.051Z,24.98
2022-10-13T20:46:54.034Z,23.73
2022-10-13T20:49:23.054Z,22.60
2022-10-13T20:51:50.926Z,21.60
2022-10-13T20:54:18.927Z,20.92
2022-10-13T20:56:51.572Z,22.45
2022-10-13T20:59:23.758Z,21.83
2022-10-13T21:01:52.883Z,21.38
2022-10-13T21:04:20.951Z,21.80
2022-10-13T21:06:49.607Z,19.30
2022-10-13T21:09:17.594Z,20.35
2022-10-13T21:11:45.533Z,22.00
2022-10-13T21:14:13.406Z,20.83
2022-10-13T21:16:41.490Z,21.40
2022-10-13T21:19:13.734Z,20.85
2022-10-13T21:21:41.743Z,23.40
2022-10-13T21:24:11.235Z,21.35
2022-10-13T21:26:39.244Z,21.02
2022-10-13T21:29:07.351Z,20.40
2022-10-13T21:31:35.344Z,20.88
2022-10-13T21:34:03.271Z,21.27
2022-10-13T21:36:37.072Z,20.63
2022-10-13T21:39:06.890Z,22.13
2022-10-13T21:41:36.350Z,21.80
2022-10-13T21:44:05.037Z,21.35
2022-10-13T21:46:36.541Z,21.23
2022-10-13T21:49:06.744Z,21.90
2022-10-13T21:51:40.752Z,22.42
2022-10-13T21:54:12.287Z,22.30
2022-10-13T21:59:09.922Z,22.92
2022-10-13T22:01:37.814Z,22.35
2022-10-13T22:06:40.827Z,21.55
2022-10-13T22:09:10.768Z,21.02
2022-10-13T22:11:43.636Z,21.95
2022-10-13T22:14:12.606Z,19.40
2022-10-13T22:16:43.922Z,20.55
2022-10-13T22:19:12.295Z,21.95
2022-10-13T22:21:45.809Z,23.13
2022-10-13T22:24:16.459Z,21.88
2022-10-13T22:26:45.606Z,21.97
2022-10-13T22:29:16.179Z,20.70
2022-10-13T22:31:45.139Z,21.93
2022-10-13T22:34:14.911Z,22.60
2022-10-13T22:36:44.970Z,21.55
2022-10-13T22:39:14.272Z,21.37
2022-10-13T22:41:42.575Z,21.85
2022-10-13T22:44:10.972Z,19.80
2022-10-13T22:46:39.570Z,21.23
2022-10-13T22:49:12.889Z,25.45
2022-10-13T22:51:40.813Z,22.27
2022-10-13T22:54:08.993Z,22.42
2022-10-13T22:56:37.033Z,20.17
2022-10-13T22:59:09.776Z,22.02
2022-10-13T23:01:37.722Z,22.38
2022-10-13T23:04:06.201Z,23.70
2022-10-13T23:06:36.115Z,23.48
2022-10-13T23:09:08.847Z,22.63
2022-10-13T23:11:40.058Z,24.27
2022-10-13T23:14:13.326Z,23.90
2022-10-13T23:16:41.224Z,22.77
2022-10-13T23:19:09.165Z,22.30
2022-10-13T23:21:37.081Z,21.45
2022-10-13T23:24:11.667Z,21.55
2022-10-13T23:26:39.729Z,18.80
2022-10-13T23:29:13.591Z,20.13
2022-10-13T23:31:41.914Z,18.33
2022-10-13T23:34:11.138Z,17.85
2022-10-13T23:36:39.117Z,16.60
2022-10-13T23:39:07.970Z,17.05
2022-10-13T23:41:36.001Z,16.40
2022-10-13T23:44:04.158Z,17.25
2022-10-13T23:46:32.053Z,17.35
2022-10-13T23:48:59.919Z,16.85
2022-10-13T23:51:28.009Z,16.88
2022-10-13T23:53:57.046Z,16.08
2022-10-13T23:56:25.198Z,17.00
2022-10-13T23:58:53.066Z,15.70
